createdAt,value
2022-09-07T00:01:07.481Z,99911.53
2022-09-07T00:04:10.563Z,99909.75
2022-09-07T00:07:16.302Z,99905.72
2022-09-07T00:10:19.119Z,99912.16
2022-09-07T00:13:23.845Z,99915.03
2022-09-07T00:16:27.754Z,99911.75
2022-09-07T00:19:30.586Z,99907.94
2022-09-07T00:22:33.744Z,99900.28
2022-09-07T00:25:38.726Z,99897.25
2022-09-07T00:28:43.506Z,99900.31
2022-09-07T00:31:46.433Z,99904.28
2022-09-07T00:34:49.451Z,99901.50
2022-09-07T00:37:52.272Z,99890.22
2022-09-07T00:40:55.052Z,99901.69
2022-09-07T00:44:00.082Z,99893.44
2022-09-07T00:47:02.914Z,99893.72
2022-09-07T00:50:08.799Z,99896.59
2022-09-07T00:53:13.011Z,99882.78
2022-09-07T00:56:15.995Z,99884.59
2022-09-07T00:59:22.368Z,99889.78
2022-09-07T01:02:25.694Z,99887.00
2022-09-07T01:05:31.898Z,99892.19
2022-09-07T01:08:35.961Z,99897.47
2022-09-07T01:11:39.190Z,99890.16
2022-09-07T01:14:45.693Z,99892.94
2022-09-07T01:17:55.541Z,99889.56
2022-09-07T01:21:13.246Z,99898.56
2022-09-07T01:24:36.895Z,99889.53
2022-09-07T01:28:00.446Z,99884.97
2022-09-07T01:31:10.221Z,99886.22
2022-09-07T01:34:17.409Z,99889.13
2022-09-07T01:37:23.940Z,99887.22
2022-09-07T01:40:31.628Z,99889.84
2022-09-07T01:43:40.902Z,99887.88
2022-09-07T01:46:45.577Z,99886.81
2022-09-07T01:49:51.363Z,99888.38
2022-09-07T01:52:57.590Z,99893.59
2022-09-07T01:56:02.985Z,99890.13
2022-09-07T01:59:11.752Z,99888.84
2022-09-07T02:02:16.842Z,99882.72
2022-09-07T02:05:22.302Z,99882.28
2022-09-07T02:08:28.064Z,99887.16
2022-09-07T02:11:34.845Z,99890.44
2022-09-07T02:14:42.234Z,99875.72
2022-09-07T02:17:49.320Z,99884.94
2022-09-07T02:20:54.768Z,99878.38
2022-09-07T02:24:01.804Z,99878.81
2022-09-07T02:27:08.929Z,99876.03
2022-09-07T02:30:14.080Z,99886.03
2022-09-07T02:33:16.951Z,99887.06
2022-09-07T02:36:21.988Z,99891.00
2022-09-07T02:39:24.785Z,99895.38
2022-09-07T02:42:29.218Z,99899.69
2022-09-07T02:45:39.057Z,99893.88
2022-09-07T02:48:48.618Z,99897.78
2022-09-07T02:51:56.257Z,99895.69
2022-09-07T02:55:03.689Z,99894.72
2022-09-07T02:58:14.790Z,99897.91
2022-09-07T03:01:25.910Z,99890.16
2022-09-07T03:04:32.770Z,99897.91
2022-09-07T03:07:43.516Z,99904.06
2022-09-07T03:10:47.780Z,99895.88
2022-09-07T03:13:50.604Z,99893.97
2022-09-07T03:16:57.010Z,99899.41
2022-09-07T03:19:59.744Z,99896.72
2022-09-07T03:23:02.567Z,99898.81
2022-09-07T03:26:05.562Z,99906.59
2022-09-07T03:29:08.427Z,99904.47
2022-09-07T03:32:12.603Z,99901.09
2022-09-07T03:35:15.463Z,99899.00
2022-09-07T03:38:18.240Z,99900.66
2022-09-07T03:41:20.999Z,99908.63
2022-09-07T03:44:23.836Z,99908.81
2022-09-07T03:47:28.100Z,99912.84
2022-09-07T03:50:30.889Z,99915.06
2022-09-07T03:53:34.292Z,99912.38
2022-09-07T03:56:37.111Z,99912.28
2022-09-07T03:59:39.967Z,99911.03
2022-09-07T04:02:44.196Z,99908.44
2022-09-07T04:05:47.009Z,99920.34
2022-09-07T04:08:49.774Z,99922.47
2022-09-07T04:11:52.580Z,99915.94
2022-09-07T04:14:55.842Z,99916.69
2022-09-07T04:18:00.183Z,99924.16
2022-09-07T04:21:02.957Z,99929.72
2022-09-07T04:24:05.877Z,99921.53
2022-09-07T04:27:08.670Z,99924.38
2022-09-07T04:30:13.446Z,99928.28
2022-09-07T04:33:17.662Z,99918.28
2022-09-07T04:36:20.837Z,99929.72
2022-09-07T04:39:23.599Z,99925.91
2022-09-07T04:42:26.368Z,99926.84
2022-09-07T04:45:29.167Z,99931.41
2022-09-07T04:48:33.308Z,99943.94
2022-09-07T04:51:36.661Z,99938.25
2022-09-07T04:54:39.475Z,99935.00
2022-09-07T04:57:42.210Z,99940.34
2022-09-07T05:00:45.063Z,99944.78
2022-09-07T05:03:49.300Z,99941.06
2022-09-07T05:06:52.081Z,99943.03
2022-09-07T05:09:54.939Z,99932.75
2022-09-07T05:12:58.281Z,99943.88
2022-09-07T05:16:01.911Z,99950.88
2022-09-07T05:19:06.427Z,99940.56
2022-09-07T05:22:09.284Z,99946.06
2022-09-07T05:25:12.026Z,99945.22
2022-09-07T05:28:19.093Z,99941.28
2022-09-07T05:31:23.279Z,99949.50
2022-09-07T05:37:31.097Z,99947.47
2022-09-07T05:40:38.457Z,99947.56
2022-09-07T05:47:06.190Z,99947.69
2022-09-07T05:50:11.559Z,99950.72
2022-09-07T05:53:16.729Z,99945.69
2022-09-07T05:56:19.541Z,99945.69
2022-09-07T05:59:22.407Z,99949.91
2022-09-07T06:02:25.282Z,99955.94
2022-09-07T06:05:29.936Z,99954.97
2022-09-07T06:08:33.411Z,99954.25
2022-09-07T06:11:37.704Z,99954.72
2022-09-07T06:14:42.061Z,99953.25
2022-09-07T06:17:45.012Z,99956.53
2022-09-07T06:20:52.440Z,99966.28
2022-09-07T06:23:57.791Z,99963.81
2022-09-07T06:27:00.822Z,99972.63
2022-09-07T06:30:03.912Z,99979.38
2022-09-07T06:33:06.893Z,99983.22
2022-09-07T06:36:13.306Z,99979.31
2022-09-07T06:39:16.348Z,99979.16
2022-09-07T06:42:19.324Z,99981.22
2022-09-07T06:45:22.379Z,99984.09
2022-09-07T06:48:26.973Z,99984.94
2022-09-07T06:51:32.256Z,99982.13
2022-09-07T06:57:58.170Z,99989.16
2022-09-07T07:01:06.276Z,99993.41
2022-09-07T07:04:09.151Z,99996.81
2022-09-07T07:07:14.122Z,99993.88
2022-09-07T07:10:19.700Z,99994.59
2022-09-07T07:13:25.215Z,99997.25
2022-09-07T07:16:28.100Z,99995.47
2022-09-07T07:19:30.943Z,99995.66
2022-09-07T07:22:50.456Z,100000.97
2022-09-07T07:25:53.292Z,100002.72
2022-09-07T07:32:04.110Z,99998.28
2022-09-07T07:35:10.131Z,99994.78
2022-09-07T07:48:18.208Z,100001.09
2022-09-07T07:51:21.124Z,100003.44
2022-09-07T07:54:25.229Z,100000.25
2022-09-07T07:57:27.994Z,99990.09
2022-09-07T08:00:50.827Z,99991.53
2022-09-07T08:03:53.693Z,99979.31
2022-09-07T08:06:56.679Z,99971.03
2022-09-07T08:10:00.936Z,99980.84
2022-09-07T08:13:03.786Z,99976.66
2022-09-07T08:16:06.788Z,99970.63
2022-09-07T08:19:09.627Z,99972.91
2022-09-07T08:22:12.999Z,99973.88
2022-09-07T08:25:17.578Z,99964.59
2022-09-07T08:28:20.524Z,99963.50
2022-09-07T08:31:23.653Z,99964.34
2022-09-07T08:34:26.510Z,99967.41
2022-09-07T08:37:29.376Z,99967.16
2022-09-07T08:40:37.010Z,99961.25
2022-09-07T08:43:49.083Z,99954.22
2022-09-07T08:46:55.793Z,99957.88
2022-09-07T08:50:02.895Z,99959.56
2022-09-07T08:53:09.305Z,99948.31
2022-09-07T08:56:17.322Z,99951.69
2022-09-07T08:59:22.803Z,99945.38
2022-09-07T09:02:28.247Z,99941.72
2022-09-07T09:05:38.249Z,99950.84
2022-09-07T09:08:50.427Z,99942.84
2022-09-07T09:11:59.740Z,99946.94
2022-09-07T09:15:10.505Z,99933.97
2022-09-07T09:18:23.392Z,99933.72
2022-09-07T09:21:27.185Z,99927.22
2022-09-07T09:24:36.386Z,99932.31
2022-09-07T09:27:40.611Z,99924.31
2022-09-07T09:30:43.703Z,99927.94
2022-09-07T09:34:07.927Z,99927.25
2022-09-07T09:37:12.531Z,99924.69
2022-09-07T09:40:22.897Z,99930.09
2022-09-07T09:43:29.081Z,99930.63
2022-09-07T09:46:33.683Z,99928.78
2022-09-07T09:49:37.538Z,99921.38
2022-09-07T09:52:50.927Z,99919.81
2022-09-07T09:55:55.508Z,99929.50
2022-09-07T10:05:58.408Z,99919.28
2022-09-07T10:09:02.308Z,99916.16
2022-09-07T10:12:06.127Z,99923.78
2022-09-07T10:15:25.945Z,99921.75
2022-09-07T10:18:33.572Z,99921.28
2022-09-07T10:21:36.320Z,99931.81
2022-09-07T10:24:40.172Z,99922.09
2022-09-07T10:27:46.855Z,99925.00
2022-09-07T10:31:02.394Z,99914.09
2022-09-07T10:34:26.246Z,99921.78
2022-09-07T10:37:34.552Z,99915.00
2022-09-07T10:40:42.304Z,99917.84
2022-09-07T10:43:46.520Z,99916.16
2022-09-07T10:46:57.889Z,99906.94
2022-09-07T10:53:41.719Z,99901.50
2022-09-07T10:56:50.234Z,99894.66
2022-09-07T11:00:13.503Z,99892.09
2022-09-07T11:03:26.481Z,99897.16
2022-09-07T11:06:33.466Z,99883.38
2022-09-07T11:09:48.248Z,99891.13
2022-09-07T11:12:53.203Z,99890.41
2022-09-07T11:15:58.760Z,99881.97
2022-09-07T11:22:34.850Z,99881.00
2022-09-07T11:25:42.023Z,99881.41
2022-09-07T11:28:47.402Z,99881.97
2022-09-07T11:31:52.338Z,99877.88
2022-09-07T11:34:58.819Z,99871.28
2022-09-07T11:38:07.583Z,99866.88
2022-09-07T11:41:25.287Z,99869.56
2022-09-07T11:44:32.432Z,99866.72
2022-09-07T11:47:38.741Z,99863.91
2022-09-07T11:50:46.359Z,99859.41
2022-09-07T11:53:52.524Z,99848.16
2022-09-07T11:56:58.363Z,99856.34
2022-09-07T12:00:06.021Z,99848.69
2022-09-07T12:03:24.115Z,99839.72
2022-09-07T12:06:37.359Z,99845.84
2022-09-07T12:09:49.220Z,99846.78
2022-09-07T12:13:06.805Z,99843.78
2022-09-07T12:16:12.418Z,99843.25
2022-09-07T12:19:18.487Z,99831.09
2022-09-07T12:22:23.353Z,99832.25
2022-09-07T12:25:26.962Z,99837.22
2022-09-07T12:28:47.627Z,99832.34
2022-09-07T12:32:07.696Z,99834.19
2022-09-07T12:35:35.883Z,99842.88
2022-09-07T12:38:53.486Z,99833.03
2022-09-07T12:45:53.084Z,99839.66
2022-09-07T12:49:01.372Z,99836.38
2022-09-07T12:52:15.726Z,99823.06
2022-09-07T12:59:17.348Z,99827.94
2022-09-07T13:02:38.081Z,99842.50
2022-09-07T13:05:50.676Z,99826.75
2022-09-07T13:09:02.448Z,99827.69
2022-09-07T13:15:45.811Z,99834.19
2022-09-07T13:18:49.989Z,99835.19
2022-09-07T13:21:52.828Z,99832.19
2022-09-07T13:24:56.898Z,99832.19
2022-09-07T13:28:00.984Z,99836.25
2022-09-07T13:31:08.493Z,99829.91
2022-09-07T13:34:29.636Z,99833.59
2022-09-07T13:37:38.273Z,99838.53
2022-09-07T13:40:46.108Z,99830.00
2022-09-07T13:43:49.517Z,99834.44
2022-09-07T13:46:58.080Z,99841.22
2022-09-07T13:50:05.411Z,99832.59
2022-09-07T13:53:34.382Z,99828.84
2022-09-07T13:56:47.565Z,99840.47
2022-09-07T13:59:52.062Z,99824.41
2022-09-07T14:02:56.914Z,99828.13
2022-09-07T14:06:27.438Z,99825.09
2022-09-07T14:09:31.987Z,99819.50
2022-09-07T14:12:42.503Z,99822.78
2022-09-07T14:15:46.930Z,99827.84
2022-09-07T14:18:49.767Z,99817.13
2022-09-07T14:21:56.711Z,99818.28
2022-09-07T14:25:03.207Z,99811.53
2022-09-07T14:28:06.023Z,99816.94
2022-09-07T14:31:12.246Z,99800.94
2022-09-07T14:34:16.751Z,99806.97
2022-09-07T14:37:21.442Z,99805.56
2022-09-07T14:40:26.706Z,99809.44
2022-09-07T14:43:30.776Z,99795.66
2022-09-07T14:46:34.809Z,99800.72
2022-09-07T14:49:37.616Z,99808.19
2022-09-07T14:53:33.200Z,99807.88
2022-09-07T14:56:10.370Z,99805.53
2022-09-07T14:59:29.408Z,99807.06
2022-09-07T15:02:36.600Z,99815.78
2022-09-07T15:05:48.111Z,99809.34
2022-09-07T15:08:51.072Z,99812.31
2022-09-07T15:12:04.447Z,99811.19
2022-09-07T15:15:21.828Z,99812.03
2022-09-07T15:18:57.788Z,99804.72
2022-09-07T15:22:00.601Z,99808.09
2022-09-07T15:25:03.696Z,99809.63
2022-09-07T15:28:08.247Z,99813.44
2022-09-07T15:34:34.729Z,99808.53
2022-09-07T15:41:22.056Z,99808.66
2022-09-07T15:44:26.362Z,99804.72
2022-09-07T15:51:01.459Z,99802.19
2022-09-07T15:54:11.800Z,99798.81
2022-09-07T16:00:40.346Z,99796.31
2022-09-07T16:03:48.969Z,99804.31
2022-09-07T16:06:51.863Z,99803.69
2022-09-07T16:09:54.651Z,99799.91
2022-09-07T16:13:02.367Z,99806.47
2022-09-07T16:16:08.279Z,99799.47
2022-09-07T16:19:13.821Z,99807.97
2022-09-07T16:25:56.398Z,99807.56
2022-09-07T16:28:59.182Z,99813.56
2022-09-07T16:35:26.658Z,99818.56
2022-09-07T16:38:47.458Z,99817.59
2022-09-07T16:41:50.402Z,99821.56
2022-09-07T16:46:02.644Z,99818.59
2022-09-07T16:48:22.373Z,99830.50
2022-09-07T16:51:25.981Z,99830.81
2022-09-07T16:54:29.016Z,99823.56
2022-09-07T16:58:35.155Z,99826.88
2022-09-07T17:00:55.423Z,99827.22
2022-09-07T17:04:00.272Z,99823.75
2022-09-07T17:07:10.567Z,99825.34
2022-09-07T17:10:13.588Z,99824.41
2022-09-07T17:13:18.531Z,99823.81
2022-09-07T17:16:22.684Z,99821.41
2022-09-07T17:19:30.296Z,99819.81
2022-09-07T17:22:33.397Z,99824.69
2022-09-07T17:25:39.345Z,99824.38
2022-09-07T17:28:44.118Z,99821.94
2022-09-07T17:35:12.316Z,99833.25
2022-09-07T17:41:38.612Z,99829.69
2022-09-07T17:44:41.491Z,99835.63
2022-09-07T17:47:44.601Z,99836.72
2022-09-07T17:50:51.607Z,99841.06
2022-09-07T17:53:59.092Z,99830.56
2022-09-07T17:57:03.072Z,99831.53
2022-09-07T18:00:12.579Z,99833.13
2022-09-07T18:03:17.500Z,99836.63
2022-09-07T18:06:27.280Z,99837.22
2022-09-07T18:09:30.832Z,99835.28
2022-09-07T18:12:33.885Z,99842.28
2022-09-07T18:15:40.338Z,99835.75
2022-09-07T18:18:43.548Z,99833.31
2022-09-07T18:21:51.928Z,99834.53
2022-09-07T18:24:56.018Z,99836.84
2022-09-07T18:31:28.736Z,99831.19
2022-09-07T18:34:35.358Z,99829.22
2022-09-07T18:37:39.827Z,99835.72
2022-09-07T18:40:45.944Z,99832.75
2022-09-07T18:43:49.587Z,99828.78
2022-09-07T18:46:52.348Z,99827.00
2022-09-07T18:49:55.493Z,99821.31
2022-09-07T18:53:07.533Z,99828.22
2022-09-07T18:56:20.101Z,99823.66
2022-09-07T18:59:30.829Z,99821.47
2022-09-07T19:02:36.539Z,99814.00
2022-09-07T19:05:55.424Z,99812.28
2022-09-07T19:09:01.296Z,99805.53
2022-09-07T19:12:04.179Z,99803.03
2022-09-07T19:15:09.684Z,99802.41
2022-09-07T19:18:12.489Z,99805.97
2022-09-07T19:21:16.994Z,99797.84
2022-09-07T19:24:23.718Z,99804.13
2022-09-07T19:27:27.237Z,99804.69
2022-09-07T19:30:30.549Z,99808.94
2022-09-07T19:33:33.377Z,99796.16
2022-09-07T19:36:36.216Z,99795.31
2022-09-07T19:39:40.862Z,99796.84
2022-09-07T19:42:44.981Z,99796.38
2022-09-07T19:45:48.050Z,99794.44
2022-09-07T19:48:51.545Z,99803.00
2022-09-07T19:51:54.358Z,99806.53
2022-09-07T19:55:00.440Z,99801.09
2022-09-07T19:58:03.142Z,99805.44
2022-09-07T20:01:11.289Z,99805.66
2022-09-07T20:04:19.563Z,99805.78
2022-09-07T20:07:23.371Z,99806.50
2022-09-07T20:10:27.478Z,99798.16
2022-09-07T20:13:30.518Z,99799.72
2022-09-07T20:16:33.364Z,99801.78
2022-09-07T20:19:36.311Z,99795.63
2022-09-07T20:22:39.109Z,99792.50
2022-09-07T20:25:43.222Z,99796.47
2022-09-07T20:28:46.670Z,99790.91
2022-09-07T20:31:49.671Z,99796.47
2022-09-07T20:34:53.188Z,99786.81
2022-09-07T20:37:55.968Z,99796.09
2022-09-07T20:41:01.097Z,99790.78
2022-09-07T20:44:05.982Z,99790.06
2022-09-07T20:47:08.774Z,99789.34
2022-09-07T20:50:11.572Z,99786.53
2022-09-07T20:53:14.307Z,99792.59
2022-09-07T20:56:19.403Z,99793.44
2022-09-07T20:59:22.268Z,99785.84
2022-09-07T21:02:25.118Z,99793.03
2022-09-07T21:05:27.953Z,99798.41
2022-09-07T21:08:30.787Z,99787.63
2022-09-07T21:11:35.643Z,99789.69
2022-09-07T21:14:38.447Z,99796.31
2022-09-07T21:17:41.215Z,99795.72
2022-09-07T21:20:57.893Z,99790.69
2022-09-07T21:24:07.936Z,99787.25
2022-09-07T21:27:12.036Z,99786.28
2022-09-07T21:30:14.919Z,99791.50
2022-09-07T21:33:17.678Z,99782.97
2022-09-07T21:36:20.516Z,99791.22
2022-09-07T21:39:23.260Z,99785.44
2022-09-07T21:42:27.434Z,99780.66
2022-09-07T21:45:32.269Z,99777.47
2022-09-07T21:48:35.028Z,99772.31
2022-09-07T21:51:37.809Z,99771.72
2022-09-07T21:54:40.745Z,99771.09
2022-09-07T21:57:44.819Z,99769.06
2022-09-07T22:00:47.652Z,99763.59
2022-09-07T22:03:59.371Z,99763.50
2022-09-07T22:07:02.180Z,99764.81
2022-09-07T22:10:05.113Z,99761.09
2022-09-07T22:13:09.332Z,99755.41
2022-09-07T22:16:12.870Z,99762.56
2022-09-07T22:19:15.650Z,99757.22
2022-09-07T22:22:18.370Z,99752.66
2022-09-07T22:25:21.171Z,99749.66
2022-09-07T22:28:25.346Z,99748.56
2022-09-07T22:31:29.358Z,99742.78
2022-09-07T22:34:32.182Z,99735.88
2022-09-07T22:37:34.988Z,99738.44
2022-09-07T22:40:37.821Z,99743.72
2022-09-07T22:43:42.752Z,99736.09
2022-09-07T22:46:47.165Z,99739.59
2022-09-07T22:49:50.117Z,99731.66
2022-09-07T22:52:52.896Z,99733.44
2022-09-07T22:55:56.044Z,99728.78
2022-09-07T22:59:01.216Z,99732.03
2022-09-07T23:02:03.985Z,99728.75
2022-09-07T23:05:07.143Z,99716.69
2022-09-07T23:08:10.005Z,99729.16
2022-09-07T23:11:12.791Z,99723.81
2022-09-07T23:14:17.752Z,99723.19
2022-09-07T23:17:20.511Z,99725.88
2022-09-07T23:20:24.039Z,99719.41
2022-09-07T23:23:26.982Z,99717.69
2022-09-07T23:26:30.517Z,99716.47
2022-09-07T23:29:34.674Z,99721.09
2022-09-07T23:32:37.410Z,99708.41
2022-09-07T23:35:40.208Z,99712.16
2022-09-07T23:38:43.013Z,99715.28
2022-09-07T23:41:45.815Z,99722.66
2022-09-07T23:44:49.931Z,99718.44
2022-09-07T23:47:52.795Z,99710.72
2022-09-07T23:50:55.613Z,99712.63
2022-09-07T23:53:58.366Z,99713.34
2022-09-07T23:57:01.326Z,99709.03
